Time;durP1;ratioP1;P1;durP2;ratioP2;P2;SDS_P1;SDS_P2;PMS_P1;PMS_P2;Temp;Humidity;BMP_temperature;BMP_pressure;BME280_temperature;BME280_humidity;BME280_pressure;Samples;Min_cycle;Max_cycle;Signal;HPM_P1;HPM_P2
2023/05/25 00:01:18;;;;;;;5.68;3.35;;;;;;;;;;4993430;28;20042;-76
2023/05/25 00:03:45;;;;;;;9.63;3.75;;;;;;;;;;4993370;28;20408;-76
2023/05/25 00:06:12;;;;;;;8.45;3.90;;;;;;;;;;4993370;28;20129;-76
2023/05/25 00:08:39;;;;;;;7.93;3.88;;;;;;;;;;4992421;28;20074;-76
2023/05/25 00:11:07;;;;;;;9.45;4.10;;;;;;;;;;4993538;28;20053;-76
2023/05/25 00:13:34;;;;;;;9.13;3.80;;;;;;;;;;4993208;28;20050;-75
2023/05/25 00:16:01;;;;;;;8.40;3.72;;;;;;;;;;4992611;28;20145;-76
2023/05/25 00:18:27;;;;;;;8.20;4.43;;;;;;;;;;4992422;28;20078;-76
2023/05/25 00:20:54;;;;;;;5.88;3.53;;;;;;;;;;4993110;28;20078;-76
2023/05/25 00:23:21;;;;;;;9.00;3.53;;;;;;;;;;4993083;28;20061;-76
2023/05/25 00:25:47;;;;;;;10.95;4.55;;;;;;;;;;4992876;28;20038;-76
2023/05/25 00:28:15;;;;;;;7.72;4.18;;;;;;;;;;4992187;28;20042;-76
2023/05/25 00:30:42;;;;;;;7.55;3.85;;;;;;;;;;4992853;28;20145;-76
2023/05/25 00:33:09;;;;;;;7.50;4.00;;;;;;;;;;4992869;28;20524;-76
2023/05/25 00:35:35;;;;;;;11.02;4.90;;;;;;;;;;4993060;28;20049;-76
2023/05/25 00:38:02;;;;;;;9.30;4.30;;;;;;;;;;4992146;28;20412;-76
2023/05/25 00:40:29;;;;;;;8.95;4.15;;;;;;;;;;4992323;28;20052;-75
2023/05/25 00:42:57;;;;;;;8.95;4.03;;;;;;;;;;4992455;28;20133;-76
2023/05/25 00:45:25;;;;;;;11.00;3.83;;;;;;;;;;4992486;28;20462;-76
2023/05/25 00:47:52;;;;;;;9.25;3.97;;;;;;;;;;4991874;28;20046;-76
2023/05/25 00:50:30;;;;;;;9.38;4.10;;;;;;;;;;4992346;28;20046;-76
2023/05/25 00:52:57;;;;;;;8.00;3.47;;;;;;;;;;4992633;28;20395;-76
2023/05/25 00:55:28;;;;;;;8.90;4.22;;;;;;;;;;4992499;28;20639;-76
2023/05/25 00:58:00;;;;;;;8.02;4.20;;;;;;;;;;4991914;28;20070;-76
2023/05/25 01:00:30;;;;;;;7.90;4.00;;;;;;;;;;4991996;28;20125;-76
2023/05/25 01:02:59;;;;;;;9.63;4.32;;;;;;;;;;4983457;28;20127;-75
2023/05/25 01:05:28;;;;;;;12.02;4.47;;;;;;;;;;4972579;28;20101;-76
2023/05/25 01:08:02;;;;;;;9.52;4.35;;;;;;;;;;4972203;28;20104;-76
2023/05/25 01:10:31;;;;;;;7.28;3.70;;;;;;;;;;4977947;28;20046;-76
2023/05/25 01:13:01;;;;;;;7.70;3.72;;;;;;;;;;4992147;28;20457;-76
2023/05/25 01:15:30;;;;;;;8.13;4.32;;;;;;;;;;4992286;28;20050;-76
2023/05/25 01:17:58;;;;;;;9.57;4.00;;;;;;;;;;4991397;28;20053;-76
2023/05/25 01:20:26;;;;;;;12.00;5.20;;;;;;;;;;4991603;28;20046;-76
2023/05/25 01:22:59;;;;;;;9.60;3.90;;;;;;;;;;4991904;28;20493;-75
2023/05/25 01:25:34;;;;;;;10.75;4.28;;;;;;;;;;4992059;28;20142;-75
2023/05/25 01:28:06;;;;;;;8.93;4.07;;;;;;;;;;4998121;28;20057;-76
2023/05/25 01:30:36;;;;;;;8.50;4.13;;;;;;;;;;4998598;28;20774;-74
2023/05/25 01:33:04;;;;;;;10.20;3.88;;;;;;;;;;4997778;28;20497;-75
2023/05/25 01:35:31;;;;;;;8.23;4.10;;;;;;;;;;4998742;28;20125;-75
2023/05/25 01:38:00;;;;;;;7.80;4.20;;;;;;;;;;4998228;28;20097;-75
2023/05/25 01:40:27;;;;;;;9.57;4.57;;;;;;;;;;4998736;28;20087;-75
2023/05/25 01:42:54;;;;;;;7.55;3.97;;;;;;;;;;4998135;28;20729;-75
2023/05/25 01:45:21;;;;;;;9.25;4.13;;;;;;;;;;4998283;28;20101;-75
2023/05/25 01:47:57;;;;;;;6.88;4.15;;;;;;;;;;4996955;28;20042;-76
2023/05/25 01:50:34;;;;;;;8.43;4.32;;;;;;;;;;4998786;28;20046;-75
2023/05/25 01:53:06;;;;;;;7.75;4.22;;;;;;;;;;4998406;28;20054;-76
2023/05/25 01:55:37;;;;;;;8.32;4.25;;;;;;;;;;4998596;28;20069;-75
2023/05/25 01:58:06;;;;;;;10.52;4.15;;;;;;;;;;4978539;28;20051;-75
2023/05/25 02:00:34;;;;;;;11.35;5.07;;;;;;;;;;4978883;28;20053;-75
2023/05/25 02:03:01;;;;;;;8.95;5.00;;;;;;;;;;4987737;28;20042;-75
2023/05/25 02:05:28;;;;;;;8.57;4.97;;;;;;;;;;4998455;28;20047;-75
2023/05/25 02:07:56;;;;;;;11.23;5.00;;;;;;;;;;4997516;28;20749;-75
2023/05/25 02:10:24;;;;;;;9.45;5.03;;;;;;;;;;4998223;28;20050;-75
2023/05/25 02:12:51;;;;;;;8.27;4.53;;;;;;;;;;4997974;28;20118;-75
2023/05/25 02:15:18;;;;;;;9.52;4.88;;;;;;;;;;4998422;28;20050;-75
2023/05/25 02:17:44;;;;;;;11.23;5.30;;;;;;;;;;4997578;28;20046;-75
2023/05/25 02:20:12;;;;;;;8.80;5.55;;;;;;;;;;4998218;28;20043;-76
2023/05/25 02:22:39;;;;;;;9.63;5.07;;;;;;;;;;4998135;28;20246;-76
2023/05/25 02:25:07;;;;;;;9.50;5.20;;;;;;;;;;4997716;28;20449;-76
2023/05/25 02:27:35;;;;;;;9.48;4.82;;;;;;;;;;4997470;28;20081;-76
2023/05/25 02:30:02;;;;;;;11.88;5.85;;;;;;;;;;4997829;28;20050;-76
2023/05/25 02:32:30;;;;;;;11.45;6.88;;;;;;;;;;4997885;28;20046;-76
2023/05/25 02:34:56;;;;;;;8.98;5.68;;;;;;;;;;4997785;28;20054;-76
2023/05/25 02:37:23;;;;;;;11.30;6.45;;;;;;;;;;4996726;28;20047;-76
2023/05/25 02:39:49;;;;;;;12.05;6.65;;;;;;;;;;4994301;28;20054;-76
2023/05/25 02:42:16;;;;;;;12.50;6.57;;;;;;;;;;4994708;28;20137;-76
2023/05/25 02:44:47;;;;;;;11.77;6.72;;;;;;;;;;4994904;28;20069;-76
2023/05/25 02:47:13;;;;;;;;;;;;;;;;;;4983820;28;20046;-76
2023/05/25 02:49:40;;;;;;;15.48;7.78;;;;;;;;;;4994409;28;19925;-76
2023/05/25 02:52:06;;;;;;;14.57;8.35;;;;;;;;;;4994954;28;20054;-76
2023/05/25 02:54:33;;;;;;;16.40;9.13;;;;;;;;;;4994256;28;20421;-76
2023/05/25 02:57:01;;;;;;;12.07;8.45;;;;;;;;;;4994660;28;20052;-76
2023/05/25 02:59:28;;;;;;;13.38;8.63;;;;;;;;;;4993953;28;20516;-76
2023/05/25 03:01:56;;;;;;;17.48;9.73;;;;;;;;;;4994642;28;20133;-76
2023/05/25 03:04:23;;;;;;;15.23;8.88;;;;;;;;;;4994310;28;20042;-76
2023/05/25 03:06:49;;;;;;;15.35;10.05;;;;;;;;;;4994665;28;20046;-76
2023/05/25 03:09:16;;;;;;;14.18;9.38;;;;;;;;;;4994847;28;20197;-76
2023/05/25 03:11:43;;;;;;;14.70;9.57;;;;;;;;;;5007403;28;20050;-76
2023/05/25 03:14:11;;;;;;;14.10;9.48;;;;;;;;;;4995489;28;20068;-76
2023/05/25 03:16:38;;;;;;;15.85;10.13;;;;;;;;;;4994958;28;20050;-76
2023/05/25 03:19:07;;;;;;;14.45;9.48;;;;;;;;;;4994439;28;20053;-76
2023/05/25 03:21:33;;;;;;;18.35;11.20;;;;;;;;;;4994194;28;20058;-76
2023/05/25 03:24:00;;;;;;;14.52;9.27;;;;;;;;;;4994520;28;20078;-76
2023/05/25 03:26:27;;;;;;;13.77;10.23;;;;;;;;;;4993986;28;20050;-76
2023/05/25 03:28:54;;;;;;;17.38;9.77;;;;;;;;;;4993711;28;20424;-76
2023/05/25 03:31:21;;;;;;;14.48;9.27;;;;;;;;;;4994205;28;20058;-77
2023/05/25 03:33:47;;;;;;;12.70;8.68;;;;;;;;;;4994106;28;20052;-77
2023/05/25 03:36:16;;;;;;;14.13;9.60;;;;;;;;;;4993509;28;20046;-76
2023/05/25 03:38:43;;;;;;;17.25;9.38;;;;;;;;;;4993142;28;20145;-76
2023/05/25 03:41:10;;;;;;;13.57;10.02;;;;;;;;;;4993960;28;20043;-76
2023/05/25 03:43:36;;;;;;;14.00;8.70;;;;;;;;;;4993890;28;20057;-76
2023/05/25 03:46:03;;;;;;;16.73;10.18;;;;;;;;;;4993617;28;20413;-76
2023/05/25 03:48:30;;;;;;;16.73;9.15;;;;;;;;;;4993008;28;20166;-76
2023/05/25 03:50:56;;;;;;;12.25;8.70;;;;;;;;;;4993604;28;20502;-76
2023/05/25 03:53:24;;;;;;;12.88;8.60;;;;;;;;;;4993401;28;20053;-76
2023/05/25 03:55:51;;;;;;;14.30;8.07;;;;;;;;;;4993972;28;20133;-76
2023/05/25 03:58:18;;;;;;;14.40;8.88;;;;;;;;;;4992780;28;20046;-76
2023/05/25 04:00:44;;;;;;;15.30;8.95;;;;;;;;;;4993289;28;20085;-76
2023/05/25 04:03:11;;;;;;;14.80;9.15;;;;;;;;;;4993474;28;20469;-76
2023/05/25 04:05:38;;;;;;;14.55;8.80;;;;;;;;;;4993482;28;20042;-76
2023/05/25 04:08:05;;;;;;;14.82;8.90;;;;;;;;;;4992783;28;20046;-76
2023/05/25 04:10:33;;;;;;;13.45;9.32;;;;;;;;;;4993623;28;20085;-77
2023/05/25 04:13:00;;;;;;;15.63;8.90;;;;;;;;;;4993340;28;20056;-76
2023/05/25 04:15:26;;;;;;;13.25;8.60;;;;;;;;;;4992634;28;20133;-76
2023/05/25 04:17:53;;;;;;;12.82;8.52;;;;;;;;;;4992546;28;20138;-76
2023/05/25 04:20:20;;;;;;;14.65;9.18;;;;;;;;;;4993013;28;20054;-76
2023/05/25 04:22:47;;;;;;;14.02;8.27;;;;;;;;;;4992984;28;20524;-76
2023/05/25 04:25:13;;;;;;;11.10;8.13;;;;;;;;;;4992581;28;20054;-76
2023/05/25 04:27:41;;;;;;;14.02;9.05;;;;;;;;;;4992571;28;20458;-77
2023/05/25 04:30:09;;;;;;;13.98;8.82;;;;;;;;;;4992443;28;20050;-76
2023/05/25 04:32:37;;;;;;;12.85;8.55;;;;;;;;;;4993502;28;20236;-76
2023/05/25 04:35:04;;;;;;;15.35;9.05;;;;;;;;;;4993686;28;20158;-76
2023/05/25 04:37:32;;;;;;;15.35;8.75;;;;;;;;;;4992805;28;20050;-76
2023/05/25 04:39:58;;;;;;;15.55;8.88;;;;;;;;;;4992704;28;20042;-76
2023/05/25 04:42:25;;;;;;;14.48;8.70;;;;;;;;;;4992319;28;20129;-76
2023/05/25 04:44:54;;;;;;;13.07;8.65;;;;;;;;;;4992671;28;20490;-76
2023/05/25 04:47:21;;;;;;;15.55;9.35;;;;;;;;;;4992572;28;20133;-76
2023/05/25 04:49:47;;;;;;;14.32;9.10;;;;;;;;;;4992280;28;20109;-77
2023/05/25 04:52:14;;;;;;;15.45;9.30;;;;;;;;;;4992527;28;20050;-76
2023/05/25 04:54:42;;;;;;;14.27;8.90;;;;;;;;;;4992609;28;20050;-76
2023/05/25 04:57:09;;;;;;;12.63;8.05;;;;;;;;;;4992268;28;20398;-76
2023/05/25 04:59:35;;;;;;;16.25;8.27;;;;;;;;;;4992303;28;20052;-76
2023/05/25 05:02:04;;;;;;;14.70;7.85;;;;;;;;;;4991711;28;20038;-76
2023/05/25 05:04:30;;;;;;;12.45;8.68;;;;;;;;;;4992884;28;20077;-76
2023/05/25 05:06:58;;;;;;;12.95;8.82;;;;;;;;;;4992601;28;20061;-77
2023/05/25 05:09:25;;;;;;;12.52;8.43;;;;;;;;;;4992113;28;20050;-76
2023/05/25 05:11:51;;;;;;;14.68;8.63;;;;;;;;;;4993724;28;20060;-76
2023/05/25 05:14:18;;;;;;;16.35;9.05;;;;;;;;;;4992825;28;20054;-76
2023/05/25 05:16:46;;;;;;;11.98;8.25;;;;;;;;;;4993660;28;20074;-76
2023/05/25 05:19:14;;;;;;;16.45;8.80;;;;;;;;;;4992355;28;20079;-76
2023/05/25 05:21:41;;;;;;;13.52;8.93;;;;;;;;;;4993961;28;20050;-76
2023/05/25 05:24:08;;;;;;;14.70;9.00;;;;;;;;;;4993483;28;20130;-76
2023/05/25 05:26:35;;;;;;;13.38;9.55;;;;;;;;;;4993543;28;20046;-76
2023/05/25 05:29:03;;;;;;;16.33;8.73;;;;;;;;;;4991834;28;20050;-76
2023/05/25 05:31:30;;;;;;;16.63;9.85;;;;;;;;;;4991584;28;20047;-76
2023/05/25 05:33:57;;;;;;;13.50;8.60;;;;;;;;;;4991563;28;20046;-76
2023/05/25 05:36:28;;;;;;;12.80;9.25;;;;;;;;;;4992620;28;20050;-77
2023/05/25 05:38:55;;;;;;;19.63;9.93;;;;;;;;;;4991436;28;20157;-76
2023/05/25 05:41:22;;;;;;;13.18;8.90;;;;;;;;;;4991809;28;20050;-76
2023/05/25 05:43:48;;;;;;;15.20;9.82;;;;;;;;;;4992617;28;20129;-76
2023/05/25 05:46:15;;;;;;;14.50;8.38;;;;;;;;;;4992596;28;20047;-76
2023/05/25 05:48:42;;;;;;;14.65;9.13;;;;;;;;;;4991899;28;20133;-76
2023/05/25 05:51:08;;;;;;;13.02;9.13;;;;;;;;;;4992172;28;20054;-76
2023/05/25 05:53:36;;;;;;;14.40;8.93;;;;;;;;;;4991681;28;20137;-77
2023/05/25 05:56:03;;;;;;;14.82;9.02;;;;;;;;;;4992717;28;20073;-76
2023/05/25 05:58:31;;;;;;;16.20;9.07;;;;;;;;;;4991601;28;20081;-75
2023/05/25 06:00:58;;;;;;;15.52;8.90;;;;;;;;;;4991536;28;20475;-75
2023/05/25 06:03:26;;;;;;;16.75;9.60;;;;;;;;;;4990910;28;20104;-75
2023/05/25 06:05:53;;;;;;;13.93;9.60;;;;;;;;;;4991600;28;20124;-76
2023/05/25 06:08:20;;;;;;;13.35;8.93;;;;;;;;;;4991597;28;20093;-77
2023/05/25 06:10:48;;;;;;;15.02;9.05;;;;;;;;;;4983707;28;20096;-76
2023/05/25 06:13:15;;;;;;;13.98;8.73;;;;;;;;;;4992540;28;20053;-76
2023/05/25 06:15:42;;;;;;;15.77;8.90;;;;;;;;;;4996044;28;20089;-78
2023/05/25 06:18:08;;;;;;;15.40;9.43;;;;;;;;;;4994802;28;20050;-76
2023/05/25 06:20:35;;;;;;;13.52;9.15;;;;;;;;;;4995157;28;20058;-76
2023/05/25 06:23:02;;;;;;;15.00;10.23;;;;;;;;;;4995728;28;20078;-76
2023/05/25 06:25:28;;;;;;;15.55;9.05;;;;;;;;;;4987311;28;20042;-76
2023/05/25 06:27:56;;;;;;;16.02;8.88;;;;;;;;;;4995348;28;20142;-76
2023/05/25 06:30:23;;;;;;;13.77;8.82;;;;;;;;;;4995643;28;20046;-76
2023/05/25 06:32:50;;;;;;;13.35;9.52;;;;;;;;;;4995225;28;20445;-76
2023/05/25 06:35:18;;;;;;;17.92;9.50;;;;;;;;;;4994657;28;20137;-76
2023/05/25 06:37:45;;;;;;;15.30;10.25;;;;;;;;;;4995286;28;20132;-76
2023/05/25 06:40:12;;;;;;;15.68;9.77;;;;;;;;;;4995755;28;20676;-76
2023/05/25 06:42:39;;;;;;;16.38;10.25;;;;;;;;;;4995602;28;20137;-76
2023/05/25 06:45:08;;;;;;;15.52;9.68;;;;;;;;;;4995204;28;20038;-76
2023/05/25 06:47:35;;;;;;;15.85;9.25;;;;;;;;;;4994821;28;20153;-76
2023/05/25 06:50:02;;;;;;;15.25;9.48;;;;;;;;;;4994354;28;20125;-77
2023/05/25 06:52:29;;;;;;;16.90;8.90;;;;;;;;;;4988164;28;20590;-76
2023/05/25 06:54:56;;;;;;;14.23;9.43;;;;;;;;;;4995338;28;20042;-76
2023/05/25 06:57:23;;;;;;;12.95;8.55;;;;;;;;;;4994793;28;20468;-76
2023/05/25 06:59:49;;;;;;;15.10;9.52;;;;;;;;;;4995243;28;20085;-76
2023/05/25 07:02:19;;;;;;;13.65;8.80;;;;;;;;;;4991295;28;20046;-76
2023/05/25 07:04:46;;;;;;;13.20;9.10;;;;;;;;;;4974984;28;20054;-76
2023/05/25 07:07:13;;;;;;;16.02;9.18;;;;;;;;;;4973888;28;20134;-76
2023/05/25 07:09:40;;;;;;;14.68;8.93;;;;;;;;;;4973565;28;20047;-76
2023/05/25 07:12:08;;;;;;;17.65;10.02;;;;;;;;;;4987539;28;20038;-76
2023/05/25 07:14:35;;;;;;;14.27;8.35;;;;;;;;;;4993332;28;20125;-80
2023/05/25 07:17:02;;;;;;;15.90;8.55;;;;;;;;;;4992081;28;20129;-77
2023/05/25 07:19:30;;;;;;;13.70;8.65;;;;;;;;;;4992297;28;20216;-76
2023/05/25 07:21:56;;;;;;;14.10;8.23;;;;;;;;;;4992090;28;20042;-76
2023/05/25 07:24:23;;;;;;;13.38;8.90;;;;;;;;;;4998616;28;20125;-76
2023/05/25 07:26:49;;;;;;;16.15;9.18;;;;;;;;;;4996785;28;20129;-76
2023/05/25 07:29:16;;;;;;;15.40;10.18;;;;;;;;;;4997441;28;20493;-76
2023/05/25 07:31:43;;;;;;;14.73;9.80;;;;;;;;;;4996340;28;20080;-77
2023/05/25 07:34:10;;;;;;;15.63;10.23;;;;;;;;;;4992495;28;20050;-77
2023/05/25 07:36:41;;;;;;;13.43;8.60;;;;;;;;;;4992522;28;20191;-77
2023/05/25 07:39:07;;;;;;;15.77;9.48;;;;;;;;;;4992563;28;20053;-76
2023/05/25 07:41:34;;;;;;;18.38;9.02;;;;;;;;;;4991893;28;20126;-76
2023/05/25 07:44:01;;;;;;;15.02;8.93;;;;;;;;;;4992093;28;20118;-76
2023/05/25 07:46:28;;;;;;;13.38;8.82;;;;;;;;;;4994910;28;20057;-75
2023/05/25 07:48:57;;;;;;;11.30;7.90;;;;;;;;;;4992396;28;20141;-75
2023/05/25 07:51:25;;;;;;;12.70;8.93;;;;;;;;;;4994038;28;20062;-76
2023/05/25 07:53:54;;;;;;;14.73;9.77;;;;;;;;;;5005059;28;20053;-77
2023/05/25 07:56:20;;;;;;;15.02;9.38;;;;;;;;;;4992191;28;20046;-76
2023/05/25 07:58:47;;;;;;;15.18;9.10;;;;;;;;;;4991440;28;20054;-76
2023/05/25 08:01:14;;;;;;;13.20;8.70;;;;;;;;;;4990642;28;20133;-76
2023/05/25 08:03:41;;;;;;;13.50;9.38;;;;;;;;;;4986822;28;20046;-75
2023/05/25 08:06:08;;;;;;;15.77;9.38;;;;;;;;;;4991609;28;20476;-76
2023/05/25 08:08:36;;;;;;;14.30;9.40;;;;;;;;;;4991418;28;20225;-76
2023/05/25 08:11:04;;;;;;;13.90;9.65;;;;;;;;;;4991848;28;20050;-77
2023/05/25 08:13:31;;;;;;;14.68;9.57;;;;;;;;;;4992361;28;20050;-75
2023/05/25 08:15:58;;;;;;;14.95;9.48;;;;;;;;;;4992950;28;20125;-76
2023/05/25 08:18:24;;;;;;;17.38;9.13;;;;;;;;;;4991985;28;20428;-75
2023/05/25 08:20:51;;;;;;;12.63;8.93;;;;;;;;;;4992305;28;20050;-76
2023/05/25 08:23:18;;;;;;;14.50;10.15;;;;;;;;;;4988601;28;20402;-76
2023/05/25 08:25:45;;;;;;;17.75;9.75;;;;;;;;;;4972520;28;20086;-76
2023/05/25 08:28:15;;;;;;;17.20;9.65;;;;;;;;;;4990314;28;20056;-76
2023/05/25 08:30:42;;;;;;;15.60;8.93;;;;;;;;;;4991915;28;20418;-76
2023/05/25 08:33:10;;;;;;;13.13;9.45;;;;;;;;;;4991789;28;20088;-76
2023/05/25 08:35:39;;;;;;;16.20;8.70;;;;;;;;;;4991092;28;20056;-77
2023/05/25 08:38:06;;;;;;;18.15;9.68;;;;;;;;;;4989774;28;20057;-76
2023/05/25 08:40:33;;;;;;;13.35;8.45;;;;;;;;;;4992168;28;20133;-76
2023/05/25 08:43:00;;;;;;;13.60;8.98;;;;;;;;;;4991809;28;20197;-77
2023/05/25 08:45:28;;;;;;;14.40;9.35;;;;;;;;;;4992042;28;20056;-76
2023/05/25 08:47:59;;;;;;;14.35;8.70;;;;;;;;;;4990565;28;20100;-76
2023/05/25 08:50:27;;;;;;;14.15;8.80;;;;;;;;;;4991313;28;20570;-76
2023/05/25 08:52:55;;;;;;;14.90;8.98;;;;;;;;;;4991359;28;20043;-76
2023/05/25 08:55:25;;;;;;;13.35;9.02;;;;;;;;;;4992293;28;20042;-76
2023/05/25 08:57:56;;;;;;;12.32;9.00;;;;;;;;;;4992381;28;20054;-79
2023/05/25 09:00:28;;;;;;;15.90;9.27;;;;;;;;;;4994168;28;20050;-76
2023/05/25 09:03:07;;;;;;;13.95;9.13;;;;;;;;;;4991929;28;20117;-79
2023/05/25 09:05:34;;;;;;;13.45;9.02;;;;;;;;;;4994300;28;20042;-81
2023/05/25 09:08:03;;;;;;;12.57;9.20;;;;;;;;;;4993005;28;20085;-76
2023/05/25 09:10:30;;;;;;;13.38;9.05;;;;;;;;;;4993025;28;20114;-79
2023/05/25 09:12:57;;;;;;;13.18;8.82;;;;;;;;;;4992862;28;20042;-78
2023/05/25 09:15:24;;;;;;;11.27;8.45;;;;;;;;;;4993907;28;20057;-78
2023/05/25 09:17:50;;;;;;;14.82;9.30;;;;;;;;;;4993243;28;20556;-78
2023/05/25 09:20:19;;;;;;;15.13;9.50;;;;;;;;;;4993793;28;20046;-79
2023/05/25 09:22:47;;;;;;;13.80;8.82;;;;;;;;;;4990209;28;20146;-77
2023/05/25 09:25:17;;;;;;;14.38;9.15;;;;;;;;;;4990819;28;20085;-77
2023/05/25 09:27:45;;;;;;;11.65;8.68;;;;;;;;;;4988055;28;20047;-77
2023/05/25 09:30:12;;;;;;;15.40;9.40;;;;;;;;;;4971065;28;20494;-77
2023/05/25 09:32:39;;;;;;;13.90;9.38;;;;;;;;;;4972255;28;20129;-77
2023/05/25 09:35:10;;;;;;;15.40;8.85;;;;;;;;;;4971710;28;20137;-77
2023/05/25 09:37:38;;;;;;;12.20;8.60;;;;;;;;;;4971906;28;20129;-77
2023/05/25 09:40:06;;;;;;;14.98;9.02;;;;;;;;;;4975563;28;20049;-77
2023/05/25 09:42:33;;;;;;;12.55;8.13;;;;;;;;;;4989760;28;20089;-77
2023/05/25 09:45:00;;;;;;;15.38;8.77;;;;;;;;;;4991313;28;20042;-77
2023/05/25 09:47:27;;;;;;;14.52;8.77;;;;;;;;;;4991627;28;20057;-78
2023/05/25 09:49:54;;;;;;;12.15;8.85;;;;;;;;;;4994824;28;20486;-77
2023/05/25 09:52:20;;;;;;;15.57;9.57;;;;;;;;;;4994528;28;20074;-77
2023/05/25 09:54:51;;;;;;;13.50;9.50;;;;;;;;;;4994213;28;20050;-77
2023/05/25 09:57:19;;;;;;;18.55;9.52;;;;;;;;;;4994283;28;20081;-77
2023/05/25 09:59:47;;;;;;;13.85;8.38;;;;;;;;;;4994098;28;20490;-77
2023/05/25 10:02:15;;;;;;;13.45;9.10;;;;;;;;;;4991485;28;20043;-77
2023/05/25 10:04:41;;;;;;;13.63;9.90;;;;;;;;;;4975014;28;20043;-77
2023/05/25 10:07:08;;;;;;;14.40;9.93;;;;;;;;;;4975082;28;20058;-77
2023/05/25 10:09:40;;;;;;;14.75;10.07;;;;;;;;;;4974821;28;20138;-77
2023/05/25 10:12:08;;;;;;;15.02;10.00;;;;;;;;;;4974676;28;20125;-76
2023/05/25 10:14:37;;;;;;;13.98;9.80;;;;;;;;;;4974739;28;20510;-77
2023/05/25 10:17:05;;;;;;;12.23;9.40;;;;;;;;;;4982310;28;20137;-77
2023/05/25 10:19:40;;;;;;;13.23;9.07;;;;;;;;;;4993351;28;20057;-77
2023/05/25 10:22:13;;;;;;;12.50;10.07;;;;;;;;;;4993962;28;20491;-77
2023/05/25 10:24:45;;;;;;;14.25;10.57;;;;;;;;;;4993266;28;20532;-77
2023/05/25 10:27:18;;;;;;;12.45;10.35;;;;;;;;;;4993820;28;20054;-77
2023/05/25 10:29:48;;;;;;;14.02;10.18;;;;;;;;;;4992382;28;20050;-77
2023/05/25 10:32:17;;;;;;;13.82;9.40;;;;;;;;;;4994041;28;20129;-76
2023/05/25 10:34:44;;;;;;;14.10;9.68;;;;;;;;;;4993164;28;20046;-76
2023/05/25 10:37:12;;;;;;;15.52;11.07;;;;;;;;;;4993494;28;20070;-76
2023/05/25 10:39:41;;;;;;;14.18;10.82;;;;;;;;;;4988757;28;20051;-76
2023/05/25 10:42:10;;;;;;;16.08;11.43;;;;;;;;;;4973121;28;20047;-77
2023/05/25 10:44:38;;;;;;;14.40;10.65;;;;;;;;;;4973818;28;20082;-77
2023/05/25 10:47:05;;;;;;;14.82;11.68;;;;;;;;;;4983317;28;20437;-77
2023/05/25 10:49:33;;;;;;;13.98;10.68;;;;;;;;;;4996771;28;20050;-77
2023/05/25 10:52:01;;;;;;;15.73;11.90;;;;;;;;;;4997902;28;20054;-79
2023/05/25 10:54:31;;;;;;;13.50;11.32;;;;;;;;;;4997227;28;20050;-76
2023/05/25 10:57:12;;;;;;;13.95;11.02;;;;;;;;;;4993063;28;20524;-76
2023/05/25 10:59:48;;;;;;;12.73;10.60;;;;;;;;;;4992482;28;20069;-76
2023/05/25 11:02:15;;;;;;;13.52;10.65;;;;;;;;;;4990138;28;20093;-76
2023/05/25 11:04:48;;;;;;;13.85;10.48;;;;;;;;;;4992910;28;20053;-74
2023/05/25 11:07:18;;;;;;;11.35;9.85;;;;;;;;;;4976350;28;20102;-75
2023/05/25 11:09:57;;;;;;;13.95;9.73;;;;;;;;;;4973728;28;20133;-75
2023/05/25 11:12:24;;;;;;;11.38;9.90;;;;;;;;;;4975073;28;20046;-77
2023/05/25 11:15:17;;;;;;;16.20;11.15;;;;;;;;;;4979077;28;20134;-77
2023/05/25 11:17:46;;;;;;;12.82;10.88;;;;;;;;;;4977812;28;20058;-75
2023/05/25 11:20:23;;;;;;;13.43;10.60;;;;;;;;;;4980458;28;20067;-78
2023/05/25 11:22:51;;;;;;;13.35;10.20;;;;;;;;;;4986873;28;20050;-79
2023/05/25 11:25:39;;;;;;;12.82;10.63;;;;;;;;;;4979429;28;20465;-77
2023/05/25 11:28:09;;;;;;;14.00;10.88;;;;;;;;;;4987678;28;20069;-75
2023/05/25 11:30:39;;;;;;;12.07;9.85;;;;;;;;;;4991737;28;20057;-77
2023/05/25 11:33:07;;;;;;;13.90;10.20;;;;;;;;;;4998102;28;20053;-77
2023/05/25 11:35:36;;;;;;;15.32;9.38;;;;;;;;;;4996181;28;20051;-75
2023/05/25 11:38:10;;;;;;;12.43;9.38;;;;;;;;;;4999540;28;20042;-78
2023/05/25 11:40:36;;;;;;;12.45;9.32;;;;;;;;;;4998887;28;20042;-77
2023/05/25 11:43:04;;;;;;;14.43;10.95;;;;;;;;;;4983649;28;20135;-75
2023/05/25 11:45:32;;;;;;;12.48;9.93;;;;;;;;;;4972740;28;20051;-75
2023/05/25 11:48:00;;;;;;;11.27;8.85;;;;;;;;;;4972547;28;20051;-76
2023/05/25 11:50:28;;;;;;;12.93;9.60;;;;;;;;;;4983505;28;20108;-77
2023/05/25 11:52:54;;;;;;;12.40;9.07;;;;;;;;;;4996001;28;20126;-77
2023/05/25 11:55:21;;;;;;;14.23;10.80;;;;;;;;;;4994675;28;20050;-77
2023/05/25 11:57:55;;;;;;;12.43;10.05;;;;;;;;;;4998630;28;20057;-75
2023/05/25 12:00:27;;;;;;;10.43;8.98;;;;;;;;;;4995590;28;20046;-76
2023/05/25 12:02:54;;;;;;;13.93;9.35;;;;;;;;;;4997036;28;20053;-77
2023/05/25 12:05:23;;;;;;;14.35;10.27;;;;;;;;;;5005039;28;20073;-77
2023/05/25 12:07:50;;;;;;;12.30;10.30;;;;;;;;;;5002735;28;20125;-77
2023/05/25 12:10:17;;;;;;;11.50;10.27;;;;;;;;;;4997197;28;20129;-76
2023/05/25 12:12:45;;;;;;;12.07;10.25;;;;;;;;;;5001837;22;20142;-77
2023/05/25 12:15:14;;;;;;;13.63;10.27;;;;;;;;;;4992568;28;20050;-76
2023/05/25 12:17:42;;;;;;;12.77;9.85;;;;;;;;;;4991680;28;20042;-77
2023/05/25 12:20:10;;;;;;;13.15;9.93;;;;;;;;;;4992453;28;20104;-76
2023/05/25 12:22:39;;;;;;;12.07;9.90;;;;;;;;;;4981244;28;20050;-78
2023/05/25 12:25:07;;;;;;;12.30;8.68;;;;;;;;;;4971645;28;20046;-76
2023/05/25 12:27:34;;;;;;;12.38;8.73;;;;;;;;;;4961522;28;20078;-77
2023/05/25 12:30:01;;;;;;;13.18;9.27;;;;;;;;;;4955461;28;20125;-76
2023/05/25 12:32:27;;;;;;;13.27;10.18;;;;;;;;;;4972169;28;20394;-77
2023/05/25 12:35:02;;;;;;;11.07;8.55;;;;;;;;;;4972217;28;20130;-77
2023/05/25 12:37:29;;;;;;;12.05;9.70;;;;;;;;;;4972427;28;20057;-77
2023/05/25 12:39:57;;;;;;;11.05;8.60;;;;;;;;;;4971657;28;20076;-76
2023/05/25 12:42:26;;;;;;;13.98;10.07;;;;;;;;;;4972034;28;20050;-77
2023/05/25 12:44:56;;;;;;;10.57;8.95;;;;;;;;;;4957314;28;20110;-76
2023/05/25 12:47:23;;;;;;;;;;;;;;;;;;4953063;29;20058;-77
2023/05/25 12:49:51;;;;;;;12.38;10.20;;;;;;;;;;4952043;29;19928;-76
2023/05/25 12:52:35;;;;;;;13.52;10.40;;;;;;;;;;4951944;29;20134;-76
2023/05/25 12:55:27;;;;;;;13.20;10.45;;;;;;;;;;4952146;29;20125;-76
2023/05/25 12:57:55;;;;;;;13.02;10.07;;;;;;;;;;4952241;28;20135;-76
2023/05/25 13:00:22;;;;;;;14.82;10.48;;;;;;;;;;4952302;29;20410;-76
2023/05/25 13:02:49;;;;;;;13.63;11.15;;;;;;;;;;4955020;28;20047;-79
2023/05/25 13:05:23;;;;;;;12.57;10.35;;;;;;;;;;4954058;29;20047;-77
2023/05/25 13:07:50;;;;;;;12.73;10.00;;;;;;;;;;4955287;29;20517;-77
2023/05/25 13:10:17;;;;;;;10.88;9.57;;;;;;;;;;4952200;29;20142;-77
2023/05/25 13:12:46;;;;;;;15.00;11.52;;;;;;;;;;4952282;28;20083;-78
2023/05/25 13:15:14;;;;;;;13.68;11.48;;;;;;;;;;4951931;29;20055;-76
2023/05/25 13:17:43;;;;;;;13.73;9.10;;;;;;;;;;4951720;29;20051;-77
2023/05/25 13:20:13;;;;;;;14.27;10.50;;;;;;;;;;4952060;28;20130;-77
2023/05/25 13:22:40;;;;;;;12.40;9.93;;;;;;;;;;4951472;28;20058;-78
2023/05/25 13:25:08;;;;;;;13.60;9.95;;;;;;;;;;4951718;29;20047;-77
2023/05/25 13:27:35;;;;;;;11.43;10.07;;;;;;;;;;4951552;29;20055;-77
2023/05/25 13:30:04;;;;;;;15.10;11.80;;;;;;;;;;4951795;29;20047;-77
2023/05/25 13:32:30;;;;;;;15.20;11.23;;;;;;;;;;4957713;28;20451;-77
2023/05/25 13:34:58;;;;;;;11.55;9.82;;;;;;;;;;4972600;28;20659;-77
2023/05/25 13:37:26;;;;;;;11.52;10.20;;;;;;;;;;4971630;28;20047;-82
2023/05/25 13:39:53;;;;;;;14.38;11.43;;;;;;;;;;4972214;28;20054;-77
2023/05/25 13:42:19;;;;;;;13.25;10.27;;;;;;;;;;4970690;28;20130;-77
2023/05/25 13:44:46;;;;;;;14.07;9.65;;;;;;;;;;4969618;28;20050;-77
2023/05/25 13:47:14;;;;;;;11.38;9.85;;;;;;;;;;4970577;28;20417;-78
2023/05/25 13:49:41;;;;;;;12.55;10.32;;;;;;;;;;4970051;28;20047;-77
2023/05/25 13:52:07;;;;;;;12.82;9.95;;;;;;;;;;4963741;28;20161;-78
2023/05/25 13:54:34;;;;;;;12.48;9.25;;;;;;;;;;4960658;28;20051;-77
2023/05/25 13:57:01;;;;;;;13.48;10.00;;;;;;;;;;4970627;28;20043;-76
2023/05/25 13:59:28;;;;;;;13.68;10.45;;;;;;;;;;4970440;28;20047;-77
2023/05/25 14:01:55;;;;;;;12.32;9.32;;;;;;;;;;4973007;28;20054;-77
2023/05/25 14:04:23;;;;;;;12.52;10.57;;;;;;;;;;4952245;28;20517;-77
2023/05/25 14:06:50;;;;;;;12.32;8.85;;;;;;;;;;4951902;28;20126;-77
2023/05/25 14:09:16;;;;;;;14.10;10.55;;;;;;;;;;4970957;28;20058;-79
2023/05/25 14:11:43;;;;;;;10.85;9.73;;;;;;;;;;4971477;28;20138;-76
2023/05/25 14:14:10;;;;;;;13.45;10.27;;;;;;;;;;4958390;28;20055;-77
2023/05/25 14:16:37;;;;;;;11.15;8.75;;;;;;;;;;4951911;29;20086;-76
2023/05/25 14:19:04;;;;;;;12.68;10.02;;;;;;;;;;4951376;29;20146;-79
2023/05/25 14:21:32;;;;;;;9.85;8.35;;;;;;;;;;4951457;28;20138;-77
2023/05/25 14:23:59;;;;;;;11.95;9.50;;;;;;;;;;4951374;29;20083;-77
2023/05/25 14:26:26;;;;;;;11.23;7.80;;;;;;;;;;4951604;29;20075;-77
2023/05/25 14:28:54;;;;;;;9.30;7.78;;;;;;;;;;4951075;29;20062;-76
2023/05/25 14:31:21;;;;;;;12.80;8.40;;;;;;;;;;4952762;29;20054;-77
2023/05/25 14:33:47;;;;;;;11.05;9.00;;;;;;;;;;4954505;28;20149;-77
2023/05/25 14:36:14;;;;;;;10.20;8.40;;;;;;;;;;4954703;29;20134;-76